sensor_id;sensor_type;location;lat;lon;timestamp;P1;durP1;ratioP1;P2;durP2;ratioP2
51174;SDS011;37240;50.104;20.010;2024-02-15T00:02:18;105.90;;;32.88;;
51174;SDS011;37240;50.104;20.010;2024-02-15T00:07:19;95.57;;;30.77;;
51174;SDS011;37240;50.104;20.010;2024-02-15T00:12:19;102.93;;;32.97;;
51174;SDS011;37240;50.104;20.010;2024-02-15T00:17:20;98.45;;;32.35;;
51174;SDS011;37240;50.104;20.010;2024-02-15T00:22:21;113.43;;;31.33;;
51174;SDS011;37240;50.104;20.010;2024-02-15T00:27:21;84.95;;;30.20;;
51174;SDS011;37240;50.104;20.010;2024-02-15T00:32:22;90.93;;;32.00;;
51174;SDS011;37240;50.104;20.010;2024-02-15T00:37:22;96.80;;;32.65;;
51174;SDS011;37240;50.104;20.010;2024-02-15T00:42:23;98.28;;;34.65;;
51174;SDS011;37240;50.104;20.010;2024-02-15T00:47:23;110.53;;;32.75;;
51174;SDS011;37240;50.104;20.010;2024-02-15T00:52:24;97.40;;;31.27;;
51174;SDS011;37240;50.104;20.010;2024-02-15T00:57:24;101.05;;;32.00;;
51174;SDS011;37240;50.104;20.010;2024-02-15T01:02:25;95.80;;;34.63;;
51174;SDS011;37240;50.104;20.010;2024-02-15T01:07:26;94.30;;;32.17;;
51174;SDS011;37240;50.104;20.010;2024-02-15T01:12:26;96.13;;;33.92;;
51174;SDS011;37240;50.104;20.010;2024-02-15T01:17:27;97.20;;;31.42;;
51174;SDS011;37240;50.104;20.010;2024-02-15T01:22:27;91.15;;;30.65;;
51174;SDS011;37240;50.104;20.010;2024-02-15T01:27:28;85.45;;;26.75;;
51174;SDS011;37240;50.104;20.010;2024-02-15T01:32:28;85.35;;;27.35;;
51174;SDS011;37240;50.104;20.010;2024-02-15T01:37:29;86.68;;;29.40;;
51174;SDS011;37240;50.104;20.010;2024-02-15T01:42:29;92.97;;;31.83;;
51174;SDS011;37240;50.104;20.010;2024-02-15T01:47:30;77.38;;;27.52;;
51174;SDS011;37240;50.104;20.010;2024-02-15T01:52:31;78.78;;;26.88;;
51174;SDS011;37240;50.104;20.010;2024-02-15T01:57:32;68.05;;;25.92;;
51174;SDS011;37240;50.104;20.010;2024-02-15T02:02:32;68.93;;;28.30;;
51174;SDS011;37240;50.104;20.010;2024-02-15T02:07:34;89.45;;;28.08;;
51174;SDS011;37240;50.104;20.010;2024-02-15T02:12:34;68.32;;;26.08;;
51174;SDS011;37240;50.104;20.010;2024-02-15T02:17:35;63.88;;;24.17;;
51174;SDS011;37240;50.104;20.010;2024-02-15T02:22:35;79.53;;;27.52;;
51174;SDS011;37240;50.104;20.010;2024-02-15T02:27:37;89.25;;;28.20;;
51174;SDS011;37240;50.104;20.010;2024-02-15T02:32:37;75.10;;;27.23;;
51174;SDS011;37240;50.104;20.010;2024-02-15T02:37:38;88.47;;;26.73;;
51174;SDS011;37240;50.104;20.010;2024-02-15T02:42:52;76.88;;;26.80;;
51174;SDS011;37240;50.104;20.010;2024-02-15T02:47:54;76.05;;;25.17;;
51174;SDS011;37240;50.104;20.010;2024-02-15T02:52:55;74.95;;;25.17;;
51174;SDS011;37240;50.104;20.010;2024-02-15T02:57:55;74.32;;;24.73;;
51174;SDS011;37240;50.104;20.010;2024-02-15T03:02:56;70.93;;;24.60;;
51174;SDS011;37240;50.104;20.010;2024-02-15T03:07:56;69.65;;;23.75;;
51174;SDS011;37240;50.104;20.010;2024-02-15T03:12:57;66.55;;;22.85;;
51174;SDS011;37240;50.104;20.010;2024-02-15T03:17:57;64.05;;;20.50;;
51174;SDS011;37240;50.104;20.010;2024-02-15T03:22:58;68.47;;;22.38;;
51174;SDS011;37240;50.104;20.010;2024-02-15T03:28:00;74.65;;;25.08;;
51174;SDS011;37240;50.104;20.010;2024-02-15T03:33:01;67.45;;;22.77;;
51174;SDS011;37240;50.104;20.010;2024-02-15T03:38:01;82.80;;;26.08;;
51174;SDS011;37240;50.104;20.010;2024-02-15T03:43:02;80.10;;;26.52;;
51174;SDS011;37240;50.104;20.010;2024-02-15T03:48:03;74.40;;;27.27;;
51174;SDS011;37240;50.104;20.010;2024-02-15T03:53:04;76.30;;;26.48;;
51174;SDS011;37240;50.104;20.010;2024-02-15T03:58:04;89.40;;;28.73;;
51174;SDS011;37240;50.104;20.010;2024-02-15T04:03:05;70.85;;;26.80;;
51174;SDS011;37240;50.104;20.010;2024-02-15T04:08:05;80.80;;;27.40;;
51174;SDS011;37240;50.104;20.010;2024-02-15T04:13:06;80.95;;;26.20;;
51174;SDS011;37240;50.104;20.010;2024-02-15T04:18:06;77.85;;;26.75;;
51174;SDS011;37240;50.104;20.010;2024-02-15T04:23:07;77.65;;;27.45;;
51174;SDS011;37240;50.104;20.010;2024-02-15T04:28:07;84.97;;;25.70;;
51174;SDS011;37240;50.104;20.010;2024-02-15T04:33:08;79.03;;;28.30;;
51174;SDS011;37240;50.104;20.010;2024-02-15T04:38:08;77.63;;;27.70;;
51174;SDS011;37240;50.104;20.010;2024-02-15T04:43:09;83.40;;;27.75;;
51174;SDS011;37240;50.104;20.010;2024-02-15T04:48:09;79.28;;;27.83;;
51174;SDS011;37240;50.104;20.010;2024-02-15T04:53:10;76.43;;;26.63;;
51174;SDS011;37240;50.104;20.010;2024-02-15T04:58:11;75.90;;;26.80;;
51174;SDS011;37240;50.104;20.010;2024-02-15T05:03:11;77.90;;;28.00;;
51174;SDS011;37240;50.104;20.010;2024-02-15T05:08:12;76.90;;;24.92;;
51174;SDS011;37240;50.104;20.010;2024-02-15T05:13:12;66.30;;;23.75;;
51174;SDS011;37240;50.104;20.010;2024-02-15T05:18:13;84.80;;;26.10;;
51174;SDS011;37240;50.104;20.010;2024-02-15T05:23:13;90.03;;;27.17;;
51174;SDS011;37240;50.104;20.010;2024-02-15T05:28:14;74.68;;;26.05;;
51174;SDS011;37240;50.104;20.010;2024-02-15T05:33:14;81.03;;;25.65;;
51174;SDS011;37240;50.104;20.010;2024-02-15T05:38:15;67.68;;;24.67;;
51174;SDS011;37240;50.104;20.010;2024-02-15T05:43:15;68.22;;;26.13;;
51174;SDS011;37240;50.104;20.010;2024-02-15T05:48:16;76.93;;;25.50;;
51174;SDS011;37240;50.104;20.010;2024-02-15T05:53:16;73.60;;;24.58;;
51174;SDS011;37240;50.104;20.010;2024-02-15T05:58:17;82.43;;;25.38;;
51174;SDS011;37240;50.104;20.010;2024-02-15T06:03:18;75.78;;;26.08;;
51174;SDS011;37240;50.104;20.010;2024-02-15T06:08:21;79.50;;;25.20;;
51174;SDS011;37240;50.104;20.010;2024-02-15T06:13:21;78.47;;;25.75;;
51174;SDS011;37240;50.104;20.010;2024-02-15T06:18:23;77.32;;;25.70;;
51174;SDS011;37240;50.104;20.010;2024-02-15T06:23:25;89.30;;;27.20;;
51174;SDS011;37240;50.104;20.010;2024-02-15T06:28:26;73.80;;;23.45;;
51174;SDS011;37240;50.104;20.010;2024-02-15T06:33:27;74.05;;;24.23;;
51174;SDS011;37240;50.104;20.010;2024-02-15T06:38:27;64.00;;;23.50;;
51174;SDS011;37240;50.104;20.010;2024-02-15T06:43:28;75.50;;;24.08;;
51174;SDS011;37240;50.104;20.010;2024-02-15T06:48:28;81.97;;;25.23;;
51174;SDS011;37240;50.104;20.010;2024-02-15T06:53:29;73.15;;;26.10;;
51174;SDS011;37240;50.104;20.010;2024-02-15T06:58:30;68.93;;;24.98;;
51174;SDS011;37240;50.104;20.010;2024-02-15T07:03:30;64.43;;;24.17;;
51174;SDS011;37240;50.104;20.010;2024-02-15T07:08:31;85.30;;;23.73;;
51174;SDS011;37240;50.104;20.010;2024-02-15T07:13:32;78.57;;;24.35;;
51174;SDS011;37240;50.104;20.010;2024-02-15T07:18:32;83.53;;;24.98;;
51174;SDS011;37240;50.104;20.010;2024-02-15T07:23:33;83.10;;;24.30;;
51174;SDS011;37240;50.104;20.010;2024-02-15T07:28:33;74.85;;;26.40;;
51174;SDS011;37240;50.104;20.010;2024-02-15T07:33:34;76.75;;;25.15;;
51174;SDS011;37240;50.104;20.010;2024-02-15T07:38:34;81.90;;;25.17;;
51174;SDS011;37240;50.104;20.010;2024-02-15T07:43:35;82.82;;;27.48;;
51174;SDS011;37240;50.104;20.010;2024-02-15T07:48:35;76.85;;;25.63;;
51174;SDS011;37240;50.104;20.010;2024-02-15T07:53:36;86.93;;;25.25;;
51174;SDS011;37240;50.104;20.010;2024-02-15T07:58:41;65.82;;;23.30;;
51174;SDS011;37240;50.104;20.010;2024-02-15T08:03:42;78.03;;;26.92;;
51174;SDS011;37240;50.104;20.010;2024-02-15T08:08:43;87.25;;;26.98;;
51174;SDS011;37240;50.104;20.010;2024-02-15T08:13:45;90.75;;;27.80;;
51174;SDS011;37240;50.104;20.010;2024-02-15T08:18:46;80.80;;;27.25;;
51174;SDS011;37240;50.104;20.010;2024-02-15T08:23:47;90.80;;;27.15;;
51174;SDS011;37240;50.104;20.010;2024-02-15T08:28:47;84.75;;;27.98;;
51174;SDS011;37240;50.104;20.010;2024-02-15T08:33:48;92.53;;;30.88;;
51174;SDS011;37240;50.104;20.010;2024-02-15T08:38:51;108.45;;;31.63;;
51174;SDS011;37240;50.104;20.010;2024-02-15T08:43:52;95.93;;;36.33;;
51174;SDS011;37240;50.104;20.010;2024-02-15T08:48:53;103.72;;;33.90;;
51174;SDS011;37240;50.104;20.010;2024-02-15T08:53:53;102.85;;;31.75;;
51174;SDS011;37240;50.104;20.010;2024-02-15T08:58:54;97.40;;;33.38;;
51174;SDS011;37240;50.104;20.010;2024-02-15T09:03:57;100.47;;;30.52;;
51174;SDS011;37240;50.104;20.010;2024-02-15T09:08:57;102.53;;;32.05;;
51174;SDS011;37240;50.104;20.010;2024-02-15T09:13:58;113.78;;;36.53;;
51174;SDS011;37240;50.104;20.010;2024-02-15T09:18:58;96.43;;;34.50;;
51174;SDS011;37240;50.104;20.010;2024-02-15T09:23:59;123.55;;;44.40;;
51174;SDS011;37240;50.104;20.010;2024-02-15T09:29:00;100.72;;;34.20;;
51174;SDS011;37240;50.104;20.010;2024-02-15T09:34:00;100.95;;;30.88;;
51174;SDS011;37240;50.104;20.010;2024-02-15T09:39:01;101.95;;;31.77;;
51174;SDS011;37240;50.104;20.010;2024-02-15T09:44:01;110.82;;;32.33;;
51174;SDS011;37240;50.104;20.010;2024-02-15T09:49:02;92.70;;;32.00;;
51174;SDS011;37240;50.104;20.010;2024-02-15T09:54:03;98.45;;;33.13;;
51174;SDS011;37240;50.104;20.010;2024-02-15T09:59:04;88.35;;;31.45;;
51174;SDS011;37240;50.104;20.010;2024-02-15T10:04:05;94.63;;;32.28;;
51174;SDS011;37240;50.104;20.010;2024-02-15T10:09:27;97.35;;;33.20;;
51174;SDS011;37240;50.104;20.010;2024-02-15T10:14:30;85.38;;;30.33;;
51174;SDS011;37240;50.104;20.010;2024-02-15T10:19:31;72.75;;;27.45;;
51174;SDS011;37240;50.104;20.010;2024-02-15T10:24:31;73.93;;;24.48;;
51174;SDS011;37240;50.104;20.010;2024-02-15T10:29:35;62.38;;;21.33;;
51174;SDS011;37240;50.104;20.010;2024-02-15T10:34:43;70.40;;;20.98;;
51174;SDS011;37240;50.104;20.010;2024-02-15T10:39:44;44.35;;;16.75;;
51174;SDS011;37240;50.104;20.010;2024-02-15T10:44:44;46.33;;;16.73;;
51174;SDS011;37240;50.104;20.010;2024-02-15T10:49:47;37.58;;;14.65;;
51174;SDS011;37240;50.104;20.010;2024-02-15T11:00:00;32.72;;;13.27;;
51174;SDS011;37240;50.104;20.010;2024-02-15T11:05:06;25.90;;;10.10;;
51174;SDS011;37240;50.104;20.010;2024-02-15T11:10:08;31.95;;;10.45;;
51174;SDS011;37240;50.104;20.010;2024-02-15T11:15:10;25.30;;;8.88;;
51174;SDS011;37240;50.104;20.010;2024-02-15T11:20:34;20.02;;;8.05;;
51174;SDS011;37240;50.104;20.010;2024-02-15T11:25:34;20.05;;;7.55;;
51174;SDS011;37240;50.104;20.010;2024-02-15T11:30:36;21.08;;;7.35;;
51174;SDS011;37240;50.104;20.010;2024-02-15T11:35:36;16.13;;;7.45;;
51174;SDS011;37240;50.104;20.010;2024-02-15T11:41:04;34.00;;;9.77;;
51174;SDS011;37240;50.104;20.010;2024-02-15T11:46:05;20.45;;;9.50;;
51174;SDS011;37240;50.104;20.010;2024-02-15T11:51:08;21.38;;;8.57;;
51174;SDS011;37240;50.104;20.010;2024-02-15T11:56:08;18.10;;;6.85;;
51174;SDS011;37240;50.104;20.010;2024-02-15T12:01:09;17.42;;;7.38;;
51174;SDS011;37240;50.104;20.010;2024-02-15T12:06:09;19.08;;;6.95;;
51174;SDS011;37240;50.104;20.010;2024-02-15T12:11:13;17.02;;;6.45;;
51174;SDS011;37240;50.104;20.010;2024-02-15T12:16:15;16.60;;;6.05;;
51174;SDS011;37240;50.104;20.010;2024-02-15T12:21:19;17.38;;;6.40;;
51174;SDS011;37240;50.104;20.010;2024-02-15T12:26:23;14.80;;;6.05;;
51174;SDS011;37240;50.104;20.010;2024-02-15T12:31:24;14.20;;;6.32;;
51174;SDS011;37240;50.104;20.010;2024-02-15T12:36:25;15.07;;;6.72;;
51174;SDS011;37240;50.104;20.010;2024-02-15T12:41:25;22.80;;;7.15;;
51174;SDS011;37240;50.104;20.010;2024-02-15T12:46:26;24.55;;;6.60;;
51174;SDS011;37240;50.104;20.010;2024-02-15T12:51:30;15.77;;;6.32;;
51174;SDS011;37240;50.104;20.010;2024-02-15T12:56:30;11.23;;;6.13;;
51174;SDS011;37240;50.104;20.010;2024-02-15T13:01:31;8.55;;;4.85;;
51174;SDS011;37240;50.104;20.010;2024-02-15T13:06:31;12.13;;;5.45;;
51174;SDS011;37240;50.104;20.010;2024-02-15T13:11:32;11.15;;;4.55;;
51174;SDS011;37240;50.104;20.010;2024-02-15T13:16:33;8.15;;;4.18;;
51174;SDS011;37240;50.104;20.010;2024-02-15T13:21:33;6.18;;;3.63;;
51174;SDS011;37240;50.104;20.010;2024-02-15T13:26:34;13.38;;;5.75;;
51174;SDS011;37240;50.104;20.010;2024-02-15T13:31:34;9.00;;;5.22;;
51174;SDS011;37240;50.104;20.010;2024-02-15T13:36:35;13.50;;;5.20;;
51174;SDS011;37240;50.104;20.010;2024-02-15T13:41:35;15.55;;;5.00;;
51174;SDS011;37240;50.104;20.010;2024-02-15T13:46:36;15.05;;;5.53;;
51174;SDS011;37240;50.104;20.010;2024-02-15T13:51:36;6.93;;;3.60;;
51174;SDS011;37240;50.104;20.010;2024-02-15T13:56:37;5.70;;;3.60;;
51174;SDS011;37240;50.104;20.010;2024-02-15T14:01:37;6.68;;;3.40;;
51174;SDS011;37240;50.104;20.010;2024-02-15T14:06:38;11.07;;;3.17;;
51174;SDS011;37240;50.104;20.010;2024-02-15T14:11:38;7.40;;;3.58;;
51174;SDS011;37240;50.104;20.010;2024-02-15T14:16:39;7.55;;;4.13;;
51174;SDS011;37240;50.104;20.010;2024-02-15T14:21:40;11.40;;;3.80;;
51174;SDS011;37240;50.104;20.010;2024-02-15T14:26:40;6.57;;;2.85;;
51174;SDS011;37240;50.104;20.010;2024-02-15T14:31:41;4.18;;;2.83;;
51174;SDS011;37240;50.104;20.010;2024-02-15T14:36:41;6.13;;;2.65;;
51174;SDS011;37240;50.104;20.010;2024-02-15T14:41:42;11.35;;;3.55;;
51174;SDS011;37240;50.104;20.010;2024-02-15T14:46:43;7.13;;;3.28;;
51174;SDS011;37240;50.104;20.010;2024-02-15T14:51:43;8.18;;;3.30;;
51174;SDS011;37240;50.104;20.010;2024-02-15T14:56:44;9.25;;;3.30;;
51174;SDS011;37240;50.104;20.010;2024-02-15T15:01:45;7.60;;;3.05;;
51174;SDS011;37240;50.104;20.010;2024-02-15T15:06:45;3.30;;;2.78;;
51174;SDS011;37240;50.104;20.010;2024-02-15T15:11:46;9.95;;;4.28;;
51174;SDS011;37240;50.104;20.010;2024-02-15T15:16:46;13.05;;;3.60;;
51174;SDS011;37240;50.104;20.010;2024-02-15T15:21:47;7.78;;;3.15;;
51174;SDS011;37240;50.104;20.010;2024-02-15T15:26:47;4.13;;;3.03;;
51174;SDS011;37240;50.104;20.010;2024-02-15T15:31:48;8.48;;;3.10;;
51174;SDS011;37240;50.104;20.010;2024-02-15T15:36:48;5.57;;;3.30;;
51174;SDS011;37240;50.104;20.010;2024-02-15T15:41:49;12.45;;;3.35;;
51174;SDS011;37240;50.104;20.010;2024-02-15T15:46:50;8.20;;;3.60;;
51174;SDS011;37240;50.104;20.010;2024-02-15T15:51:51;23.73;;;9.93;;
51174;SDS011;37240;50.104;20.010;2024-02-15T15:56:51;17.67;;;7.35;;
51174;SDS011;37240;50.104;20.010;2024-02-15T16:01:52;23.70;;;6.47;;
51174;SDS011;37240;50.104;20.010;2024-02-15T16:06:52;21.27;;;5.95;;
51174;SDS011;37240;50.104;20.010;2024-02-15T16:11:53;14.90;;;6.00;;
51174;SDS011;37240;50.104;20.010;2024-02-15T16:16:53;23.38;;;7.63;;
51174;SDS011;37240;50.104;20.010;2024-02-15T16:21:54;30.52;;;8.65;;
51174;SDS011;37240;50.104;20.010;2024-02-15T16:26:55;79.97;;;29.85;;
51174;SDS011;37240;50.104;20.010;2024-02-15T16:31:55;34.15;;;13.43;;
51174;SDS011;37240;50.104;20.010;2024-02-15T16:36:56;29.92;;;11.98;;
51174;SDS011;37240;50.104;20.010;2024-02-15T16:41:56;28.23;;;10.52;;
51174;SDS011;37240;50.104;20.010;2024-02-15T16:46:57;43.47;;;17.02;;
51174;SDS011;37240;50.104;20.010;2024-02-15T16:51:57;31.05;;;11.77;;
51174;SDS011;37240;50.104;20.010;2024-02-15T16:56:58;34.60;;;11.73;;
51174;SDS011;37240;50.104;20.010;2024-02-15T17:01:58;33.35;;;11.02;;
51174;SDS011;37240;50.104;20.010;2024-02-15T17:06:59;34.47;;;11.80;;
51174;SDS011;37240;50.104;20.010;2024-02-15T17:12:00;36.50;;;12.57;;
51174;SDS011;37240;50.104;20.010;2024-02-15T17:17:00;43.33;;;15.93;;
51174;SDS011;37240;50.104;20.010;2024-02-15T17:22:01;46.45;;;18.08;;
51174;SDS011;37240;50.104;20.010;2024-02-15T17:27:01;55.63;;;21.30;;
51174;SDS011;37240;50.104;20.010;2024-02-15T17:32:02;65.65;;;22.50;;
51174;SDS011;37240;50.104;20.010;2024-02-15T17:37:02;66.20;;;22.85;;
51174;SDS011;37240;50.104;20.010;2024-02-15T17:42:03;63.53;;;22.92;;
51174;SDS011;37240;50.104;20.010;2024-02-15T17:47:04;55.15;;;22.27;;
51174;SDS011;37240;50.104;20.010;2024-02-15T17:52:05;70.50;;;25.85;;
51174;SDS011;37240;50.104;20.010;2024-02-15T17:57:05;66.40;;;23.60;;
51174;SDS011;37240;50.104;20.010;2024-02-15T18:02:06;65.78;;;23.83;;
51174;SDS011;37240;50.104;20.010;2024-02-15T18:07:06;67.55;;;23.75;;
51174;SDS011;37240;50.104;20.010;2024-02-15T18:12:07;72.47;;;25.73;;
51174;SDS011;37240;50.104;20.010;2024-02-15T18:17:07;66.03;;;22.67;;
51174;SDS011;37240;50.104;20.010;2024-02-15T18:22:08;76.25;;;23.45;;
51174;SDS011;37240;50.104;20.010;2024-02-15T18:27:08;71.32;;;23.73;;
51174;SDS011;37240;50.104;20.010;2024-02-15T18:32:09;65.50;;;24.05;;
51174;SDS011;37240;50.104;20.010;2024-02-15T18:37:09;80.97;;;33.38;;
51174;SDS011;37240;50.104;20.010;2024-02-15T18:42:10;67.07;;;25.23;;
51174;SDS011;37240;50.104;20.010;2024-02-15T18:47:10;55.65;;;21.88;;
51174;SDS011;37240;50.104;20.010;2024-02-15T18:52:11;64.07;;;21.27;;
51174;SDS011;37240;50.104;20.010;2024-02-15T18:57:12;53.17;;;19.83;;
51174;SDS011;37240;50.104;20.010;2024-02-15T19:02:12;65.15;;;22.33;;
51174;SDS011;37240;50.104;20.010;2024-02-15T19:07:13;58.65;;;22.90;;
51174;SDS011;37240;50.104;20.010;2024-02-15T19:12:13;65.88;;;24.40;;
51174;SDS011;37240;50.104;20.010;2024-02-15T19:17:14;74.40;;;25.45;;
51174;SDS011;37240;50.104;20.010;2024-02-15T19:22:14;68.72;;;26.42;;
51174;SDS011;37240;50.104;20.010;2024-02-15T19:27:15;60.90;;;24.15;;
51174;SDS011;37240;50.104;20.010;2024-02-15T19:32:15;61.75;;;23.38;;
51174;SDS011;37240;50.104;20.010;2024-02-15T19:37:17;73.55;;;33.08;;
51174;SDS011;37240;50.104;20.010;2024-02-15T19:42:17;67.22;;;25.88;;
51174;SDS011;37240;50.104;20.010;2024-02-15T19:47:18;65.85;;;25.10;;
51174;SDS011;37240;50.104;20.010;2024-02-15T19:52:18;69.45;;;23.88;;
51174;SDS011;37240;50.104;20.010;2024-02-15T19:57:19;62.78;;;24.23;;
51174;SDS011;37240;50.104;20.010;2024-02-15T20:02:20;83.43;;;32.15;;
51174;SDS011;37240;50.104;20.010;2024-02-15T20:07:20;103.47;;;41.67;;
51174;SDS011;37240;50.104;20.010;2024-02-15T20:12:21;100.80;;;37.42;;
51174;SDS011;37240;50.104;20.010;2024-02-15T20:17:21;88.10;;;32.33;;
51174;SDS011;37240;50.104;20.010;2024-02-15T20:22:22;74.63;;;28.27;;
51174;SDS011;37240;50.104;20.010;2024-02-15T20:27:22;75.25;;;26.67;;
51174;SDS011;37240;50.104;20.010;2024-02-15T20:32:23;66.45;;;26.08;;
51174;SDS011;37240;50.104;20.010;2024-02-15T20:37:23;82.45;;;27.77;;
51174;SDS011;37240;50.104;20.010;2024-02-15T20:42:24;76.15;;;28.85;;
51174;SDS011;37240;50.104;20.010;2024-02-15T20:47:25;71.28;;;27.38;;
51174;SDS011;37240;50.104;20.010;2024-02-15T20:52:25;76.25;;;28.67;;
51174;SDS011;37240;50.104;20.010;2024-02-15T20:57:26;74.18;;;27.58;;
51174;SDS011;37240;50.104;20.010;2024-02-15T21:02:26;73.57;;;28.00;;
51174;SDS011;37240;50.104;20.010;2024-02-15T21:07:27;84.43;;;30.17;;
51174;SDS011;37240;50.104;20.010;2024-02-15T21:12:27;77.93;;;29.77;;
51174;SDS011;37240;50.104;20.010;2024-02-15T21:17:28;84.88;;;30.08;;
51174;SDS011;37240;50.104;20.010;2024-02-15T21:22:28;77.63;;;29.90;;
51174;SDS011;37240;50.104;20.010;2024-02-15T21:27:29;73.85;;;29.15;;
51174;SDS011;37240;50.104;20.010;2024-02-15T21:32:32;78.10;;;31.48;;
51174;SDS011;37240;50.104;20.010;2024-02-15T21:37:32;84.85;;;31.17;;
51174;SDS011;37240;50.104;20.010;2024-02-15T21:42:33;85.93;;;30.83;;
51174;SDS011;37240;50.104;20.010;2024-02-15T21:47:33;85.32;;;31.92;;
51174;SDS011;37240;50.104;20.010;2024-02-15T21:52:34;82.55;;;29.83;;
51174;SDS011;37240;50.104;20.010;2024-02-15T21:57:34;85.95;;;32.15;;
51174;SDS011;37240;50.104;20.010;2024-02-15T22:02:35;81.50;;;32.13;;
51174;SDS011;37240;50.104;20.010;2024-02-15T22:07:36;86.18;;;32.65;;
51174;SDS011;37240;50.104;20.010;2024-02-15T22:12:36;93.88;;;35.17;;
51174;SDS011;37240;50.104;20.010;2024-02-15T22:17:37;100.57;;;35.25;;
51174;SDS011;37240;50.104;20.010;2024-02-15T22:22:38;101.40;;;36.55;;
51174;SDS011;37240;50.104;20.010;2024-02-15T22:27:38;94.15;;;34.17;;
51174;SDS011;37240;50.104;20.010;2024-02-15T22:32:39;93.03;;;34.15;;
51174;SDS011;37240;50.104;20.010;2024-02-15T22:37:40;95.70;;;34.00;;
51174;SDS011;37240;50.104;20.010;2024-02-15T22:42:40;94.10;;;34.53;;
51174;SDS011;37240;50.104;20.010;2024-02-15T22:47:41;95.40;;;36.53;;
51174;SDS011;37240;50.104;20.010;2024-02-15T22:52:42;90.00;;;31.27;;
51174;SDS011;37240;50.104;20.010;2024-02-15T22:57:42;95.43;;;35.08;;
51174;SDS011;37240;50.104;20.010;2024-02-15T23:02:43;88.85;;;34.05;;
51174;SDS011;37240;50.104;20.010;2024-02-15T23:07:43;97.28;;;34.70;;
51174;SDS011;37240;50.104;20.010;2024-02-15T23:12:44;92.00;;;35.45;;
51174;SDS011;37240;50.104;20.010;2024-02-15T23:17:44;96.28;;;38.63;;
51174;SDS011;37240;50.104;20.010;2024-02-15T23:22:45;92.88;;;34.63;;
51174;SDS011;37240;50.104;20.010;2024-02-15T23:27:45;101.53;;;37.60;;
51174;SDS011;37240;50.104;20.010;2024-02-15T23:32:46;95.75;;;36.03;;
51174;SDS011;37240;50.104;20.010;2024-02-15T23:37:46;117.03;;;43.78;;
51174;SDS011;37240;50.104;20.010;2024-02-15T23:42:47;101.88;;;42.05;;
51174;SDS011;37240;50.104;20.010;2024-02-15T23:47:51;102.97;;;39.45;;
51174;SDS011;37240;50.104;20.010;2024-02-15T23:52:52;107.70;;;40.03;;
51174;SDS011;37240;50.104;20.010;2024-02-15T23:57:53;105.53;;;40.33;;
